sensor_id;sensor_type;location;lat;lon;timestamp;pressure;altitude;pressure_sealevel;temperature;humidity
26807;BME280;14380;49.910;6.792;2023-07-31T00:01:24;98663.78;;;19.71;94.50
26807;BME280;14380;49.910;6.792;2023-07-31T00:03:51;98659.56;;;19.59;95.61
26807;BME280;14380;49.910;6.792;2023-07-31T00:06:21;98663.53;;;19.65;94.74
26807;BME280;14380;49.910;6.792;2023-07-31T00:08:48;98656.09;;;19.86;94.05
26807;BME280;14380;49.910;6.792;2023-07-31T00:11:16;98661.06;;;19.81;94.13
26807;BME280;14380;49.910;6.792;2023-07-31T00:13:43;98656.66;;;20.00;93.35
26807;BME280;14380;49.910;6.792;2023-07-31T00:16:10;98649.72;;;19.97;94.33
26807;BME280;14380;49.910;6.792;2023-07-31T00:18:36;98647.50;;;19.93;92.78
26807;BME280;14380;49.910;6.792;2023-07-31T00:21:03;98641.31;;;19.82;93.53
26807;BME280;14380;49.910;6.792;2023-07-31T00:23:30;98645.88;;;19.62;94.00
26807;BME280;14380;49.910;6.792;2023-07-31T00:25:56;98644.28;;;19.79;94.34
26807;BME280;14380;49.910;6.792;2023-07-31T00:28:25;98659.44;;;19.60;95.58
26807;BME280;14380;49.910;6.792;2023-07-31T00:30:52;98659.81;;;19.18;98.68
26807;BME280;14380;49.910;6.792;2023-07-31T00:33:19;98668.22;;;19.43;99.42
26807;BME280;14380;49.910;6.792;2023-07-31T00:35:46;98681.94;;;19.20;100.00
26807;BME280;14380;49.910;6.792;2023-07-31T00:38:12;98684.03;;;19.07;100.00
26807;BME280;14380;49.910;6.792;2023-07-31T00:40:39;98674.03;;;18.99;100.00
26807;BME280;14380;49.910;6.792;2023-07-31T00:43:06;98670.34;;;18.90;100.00
26807;BME280;14380;49.910;6.792;2023-07-31T00:45:34;98681.47;;;18.85;100.00
26807;BME280;14380;49.910;6.792;2023-07-31T00:48:01;98666.00;;;19.09;100.00
26807;BME280;14380;49.910;6.792;2023-07-31T00:50:28;98667.53;;;19.11;100.00
26807;BME280;14380;49.910;6.792;2023-07-31T00:52:56;98666.97;;;18.68;100.00
26807;BME280;14380;49.910;6.792;2023-07-31T00:55:23;98664.84;;;18.62;100.00
26807;BME280;14380;49.910;6.792;2023-07-31T00:57:50;98656.66;;;18.64;100.00
26807;BME280;14380;49.910;6.792;2023-07-31T01:00:18;98646.59;;;18.97;100.00
26807;BME280;14380;49.910;6.792;2023-07-31T01:02:46;98637.94;;;18.93;100.00
26807;BME280;14380;49.910;6.792;2023-07-31T01:05:14;98640.47;;;18.55;100.00
26807;BME280;14380;49.910;6.792;2023-07-31T01:07:45;98640.06;;;18.70;100.00
26807;BME280;14380;49.910;6.792;2023-07-31T01:10:20;98632.75;;;18.62;100.00
26807;BME280;14380;49.910;6.792;2023-07-31T01:12:48;98621.59;;;18.77;100.00
26807;BME280;14380;49.910;6.792;2023-07-31T01:15:17;98626.28;;;18.84;100.00
26807;BME280;14380;49.910;6.792;2023-07-31T01:17:45;98621.19;;;18.81;100.00
26807;BME280;14380;49.910;6.792;2023-07-31T01:20:20;98615.28;;;18.87;100.00
26807;BME280;14380;49.910;6.792;2023-07-31T01:23:13;98620.50;;;18.79;100.00
26807;BME280;14380;49.910;6.792;2023-07-31T01:26:02;98618.38;;;18.93;100.00
26807;BME280;14380;49.910;6.792;2023-07-31T01:28:40;98617.53;;;19.02;100.00
26807;BME280;14380;49.910;6.792;2023-07-31T01:31:13;98615.84;;;18.62;100.00
26807;BME280;14380;49.910;6.792;2023-07-31T01:33:41;98620.34;;;18.71;100.00
26807;BME280;14380;49.910;6.792;2023-07-31T01:36:08;98622.31;;;18.79;100.00
26807;BME280;14380;49.910;6.792;2023-07-31T01:38:35;98611.34;;;18.72;100.00
26807;BME280;14380;49.910;6.792;2023-07-31T01:41:03;98609.22;;;18.66;100.00
26807;BME280;14380;49.910;6.792;2023-07-31T01:43:29;98620.91;;;18.55;100.00
26807;BME280;14380;49.910;6.792;2023-07-31T01:45:56;98612.47;;;18.99;100.00
26807;BME280;14380;49.910;6.792;2023-07-31T01:48:22;98602.22;;;18.75;100.00
26807;BME280;14380;49.910;6.792;2023-07-31T01:50:49;98609.38;;;18.84;100.00
26807;BME280;14380;49.910;6.792;2023-07-31T01:53:16;98597.41;;;18.68;100.00
26807;BME280;14380;49.910;6.792;2023-07-31T01:55:42;98595.16;;;18.73;100.00
26807;BME280;14380;49.910;6.792;2023-07-31T01:58:10;98604.00;;;18.84;100.00
26807;BME280;14380;49.910;6.792;2023-07-31T02:00:37;98600.94;;;18.98;100.00
26807;BME280;14380;49.910;6.792;2023-07-31T02:03:03;98601.94;;;18.97;100.00
26807;BME280;14380;49.910;6.792;2023-07-31T02:05:30;98597.13;;;18.81;100.00
26807;BME280;14380;49.910;6.792;2023-07-31T02:07:57;98596.00;;;18.94;100.00
26807;BME280;14380;49.910;6.792;2023-07-31T02:10:23;98588.25;;;18.81;100.00
26807;BME280;14380;49.910;6.792;2023-07-31T02:12:50;98588.81;;;18.65;100.00
26807;BME280;14380;49.910;6.792;2023-07-31T02:15:18;98578.53;;;18.70;100.00
26807;BME280;14380;49.910;6.792;2023-07-31T02:17:45;98575.00;;;18.89;100.00
26807;BME280;14380;49.910;6.792;2023-07-31T02:20:11;98572.78;;;18.75;100.00
26807;BME280;14380;49.910;6.792;2023-07-31T02:22:38;98575.84;;;19.09;100.00
26807;BME280;14380;49.910;6.792;2023-07-31T02:25:05;98569.38;;;19.12;100.00
26807;BME280;14380;49.910;6.792;2023-07-31T02:27:31;98563.50;;;18.98;100.00
26807;BME280;14380;49.910;6.792;2023-07-31T02:29:58;98566.84;;;19.10;100.00
26807;BME280;14380;49.910;6.792;2023-07-31T02:32:26;98569.09;;;18.95;100.00
26807;BME280;14380;49.910;6.792;2023-07-31T02:34:53;98554.88;;;18.95;100.00
26807;BME280;14380;49.910;6.792;2023-07-31T02:37:19;98561.50;;;19.00;100.00
26807;BME280;14380;49.910;6.792;2023-07-31T02:39:46;98556.00;;;19.02;100.00
26807;BME280;14380;49.910;6.792;2023-07-31T02:42:22;98557.28;;;19.08;100.00
26807;BME280;14380;49.910;6.792;2023-07-31T02:44:51;98560.66;;;19.10;100.00
26807;BME280;14380;49.910;6.792;2023-07-31T02:47:21;98556.13;;;19.10;100.00
26807;BME280;14380;49.910;6.792;2023-07-31T02:49:49;98547.97;;;19.02;100.00
26807;BME280;14380;49.910;6.792;2023-07-31T02:52:15;98557.56;;;18.95;100.00
26807;BME280;14380;49.910;6.792;2023-07-31T02:54:42;98553.75;;;19.07;100.00
26807;BME280;14380;49.910;6.792;2023-07-31T02:57:12;98557.56;;;18.85;100.00
26807;BME280;14380;49.910;6.792;2023-07-31T02:59:38;98545.28;;;18.92;100.00
26807;BME280;14380;49.910;6.792;2023-07-31T03:02:05;98542.50;;;18.94;100.00
26807;BME280;14380;49.910;6.792;2023-07-31T03:04:31;98547.84;;;18.94;100.00
26807;BME280;14380;49.910;6.792;2023-07-31T03:07:00;98547.44;;;18.98;100.00
26807;BME280;14380;49.910;6.792;2023-07-31T03:09:26;98547.41;;;18.79;100.00
26807;BME280;14380;49.910;6.792;2023-07-31T03:11:53;98547.00;;;19.03;100.00
26807;BME280;14380;49.910;6.792;2023-07-31T03:14:19;98546.69;;;19.06;100.00
26807;BME280;14380;49.910;6.792;2023-07-31T03:16:46;98538.56;;;18.98;100.00
26807;BME280;14380;49.910;6.792;2023-07-31T03:19:15;98547.97;;;19.02;100.00
26807;BME280;14380;49.910;6.792;2023-07-31T03:21:41;98551.09;;;18.87;100.00
26807;BME280;14380;49.910;6.792;2023-07-31T03:24:09;98551.53;;;18.73;100.00
26807;BME280;14380;49.910;6.792;2023-07-31T03:26:37;98548.97;;;19.01;100.00
26807;BME280;14380;49.910;6.792;2023-07-31T03:29:06;98544.06;;;18.86;100.00
26807;BME280;14380;49.910;6.792;2023-07-31T03:31:33;98547.69;;;18.95;100.00
26807;BME280;14380;49.910;6.792;2023-07-31T03:34:00;98549.41;;;18.96;100.00
26807;BME280;14380;49.910;6.792;2023-07-31T03:36:26;98540.53;;;19.06;100.00
26807;BME280;14380;49.910;6.792;2023-07-31T03:38:53;98536.56;;;19.10;100.00
26807;BME280;14380;49.910;6.792;2023-07-31T03:41:23;98543.94;;;18.68;100.00
26807;BME280;14380;49.910;6.792;2023-07-31T03:43:50;98531.50;;;19.07;100.00
26807;BME280;14380;49.910;6.792;2023-07-31T03:46:17;98531.97;;;18.72;100.00
26807;BME280;14380;49.910;6.792;2023-07-31T03:48:44;98519.31;;;18.75;100.00
26807;BME280;14380;49.910;6.792;2023-07-31T03:51:11;98515.63;;;18.85;100.00
26807;BME280;14380;49.910;6.792;2023-07-31T03:53:39;98516.19;;;18.79;100.00
26807;BME280;14380;49.910;6.792;2023-07-31T03:56:05;98511.84;;;18.58;100.00
26807;BME280;14380;49.910;6.792;2023-07-31T03:58:34;98502.66;;;18.81;100.00
26807;BME280;14380;49.910;6.792;2023-07-31T04:01:02;98499.88;;;18.63;100.00
26807;BME280;14380;49.910;6.792;2023-07-31T04:03:30;98501.28;;;18.67;100.00
26807;BME280;14380;49.910;6.792;2023-07-31T04:05:56;98495.38;;;18.63;100.00
26807;BME280;14380;49.910;6.792;2023-07-31T04:08:23;98500.00;;;18.71;100.00
26807;BME280;14380;49.910;6.792;2023-07-31T04:10:50;98499.34;;;18.30;100.00
26807;BME280;14380;49.910;6.792;2023-07-31T04:13:17;98499.50;;;18.28;100.00
26807;BME280;14380;49.910;6.792;2023-07-31T04:15:49;98496.09;;;18.46;100.00
26807;BME280;14380;49.910;6.792;2023-07-31T04:18:16;98503.13;;;18.47;100.00
26807;BME280;14380;49.910;6.792;2023-07-31T04:20:42;98503.69;;;18.31;100.00
26807;BME280;14380;49.910;6.792;2023-07-31T04:23:09;98500.19;;;18.20;100.00
26807;BME280;14380;49.910;6.792;2023-07-31T04:25:35;98503.97;;;18.37;100.00
26807;BME280;14380;49.910;6.792;2023-07-31T04:28:02;98494.16;;;18.28;100.00
26807;BME280;14380;49.910;6.792;2023-07-31T04:30:29;98490.06;;;18.24;100.00
26807;BME280;14380;49.910;6.792;2023-07-31T04:32:57;98488.66;;;18.20;100.00
26807;BME280;14380;49.910;6.792;2023-07-31T04:35:23;98492.88;;;18.12;100.00
26807;BME280;14380;49.910;6.792;2023-07-31T04:37:50;98497.81;;;18.27;100.00
26807;BME280;14380;49.910;6.792;2023-07-31T04:40:16;98495.53;;;18.22;100.00
26807;BME280;14380;49.910;6.792;2023-07-31T04:42:43;98494.41;;;18.35;100.00
26807;BME280;14380;49.910;6.792;2023-07-31T04:45:09;98492.19;;;18.30;100.00
26807;BME280;14380;49.910;6.792;2023-07-31T04:47:36;98495.81;;;18.09;100.00
26807;BME280;14380;49.910;6.792;2023-07-31T04:50:05;98492.28;;;17.99;100.00
26807;BME280;14380;49.910;6.792;2023-07-31T04:52:34;98480.34;;;18.33;100.00
26807;BME280;14380;49.910;6.792;2023-07-31T04:55:01;98488.53;;;18.31;100.00
26807;BME280;14380;49.910;6.792;2023-07-31T04:57:28;98480.63;;;18.30;100.00
26807;BME280;14380;49.910;6.792;2023-07-31T04:59:55;98475.72;;;18.35;100.00
26807;BME280;14380;49.910;6.792;2023-07-31T05:02:21;98479.38;;;18.34;100.00
26807;BME280;14380;49.910;6.792;2023-07-31T05:04:48;98471.63;;;18.40;100.00
26807;BME280;14380;49.910;6.792;2023-07-31T05:07:16;98475.69;;;18.45;100.00
26807;BME280;14380;49.910;6.792;2023-07-31T05:09:43;98473.75;;;18.37;100.00
26807;BME280;14380;49.910;6.792;2023-07-31T05:12:09;98470.22;;;18.26;100.00
26807;BME280;14380;49.910;6.792;2023-07-31T05:14:36;98469.66;;;18.23;100.00
26807;BME280;14380;49.910;6.792;2023-07-31T05:17:03;98477.84;;;18.31;100.00
26807;BME280;14380;49.910;6.792;2023-07-31T05:19:32;98477.84;;;18.31;100.00
26807;BME280;14380;49.910;6.792;2023-07-31T05:21:59;98478.94;;;18.28;100.00
26807;BME280;14380;49.910;6.792;2023-07-31T05:24:27;98486.25;;;18.36;100.00
26807;BME280;14380;49.910;6.792;2023-07-31T05:26:53;98484.44;;;18.37;100.00
26807;BME280;14380;49.910;6.792;2023-07-31T05:29:22;98486.97;;;18.09;100.00
26807;BME280;14380;49.910;6.792;2023-07-31T05:31:49;98490.75;;;18.46;100.00
26807;BME280;14380;49.910;6.792;2023-07-31T05:34:17;98479.91;;;18.37;100.00
26807;BME280;14380;49.910;6.792;2023-07-31T05:36:44;98482.47;;;18.39;100.00
26807;BME280;14380;49.910;6.792;2023-07-31T05:39:10;98482.59;;;18.27;100.00
26807;BME280;14380;49.910;6.792;2023-07-31T05:41:39;98466.09;;;18.62;100.00
26807;BME280;14380;49.910;6.792;2023-07-31T05:44:05;98465.84;;;18.55;100.00
26807;BME280;14380;49.910;6.792;2023-07-31T05:46:32;98464.69;;;18.57;100.00
26807;BME280;14380;49.910;6.792;2023-07-31T05:48:59;98462.28;;;18.74;100.00
26807;BME280;14380;49.910;6.792;2023-07-31T05:51:26;98458.88;;;18.82;100.00
26807;BME280;14380;49.910;6.792;2023-07-31T05:53:53;98463.38;;;18.81;100.00
26807;BME280;14380;49.910;6.792;2023-07-31T05:56:20;98456.97;;;18.64;100.00
26807;BME280;14380;49.910;6.792;2023-07-31T05:58:48;98465.06;;;18.82;100.00
26807;BME280;14380;49.910;6.792;2023-07-31T06:01:15;98448.28;;;19.00;100.00
26807;BME280;14380;49.910;6.792;2023-07-31T06:03:46;98446.69;;;19.17;100.00
26807;BME280;14380;49.910;6.792;2023-07-31T06:06:13;98442.94;;;18.90;100.00
26807;BME280;14380;49.910;6.792;2023-07-31T06:08:39;98445.53;;;19.20;100.00
26807;BME280;14380;49.910;6.792;2023-07-31T06:11:06;98449.38;;;19.07;100.00
26807;BME280;14380;49.910;6.792;2023-07-31T06:13:34;98449.19;;;18.71;100.00
26807;BME280;14380;49.910;6.792;2023-07-31T06:16:02;98457.16;;;18.91;100.00
26807;BME280;14380;49.910;6.792;2023-07-31T06:18:30;98455.84;;;19.14;100.00
26807;BME280;14380;49.910;6.792;2023-07-31T06:20:58;98448.56;;;18.87;100.00
26807;BME280;14380;49.910;6.792;2023-07-31T06:23:24;98453.72;;;19.18;100.00
26807;BME280;14380;49.910;6.792;2023-07-31T06:25:51;98455.28;;;19.11;100.00
26807;BME280;14380;49.910;6.792;2023-07-31T06:28:17;98446.25;;;19.68;100.00
26807;BME280;14380;49.910;6.792;2023-07-31T06:30:46;98456.09;;;19.49;100.00
26807;BME280;14380;49.910;6.792;2023-07-31T06:33:14;98452.78;;;19.83;100.00
26807;BME280;14380;49.910;6.792;2023-07-31T06:35:41;98444.59;;;20.39;97.31
26807;BME280;14380;49.910;6.792;2023-07-31T06:38:08;98436.28;;;20.24;99.17
26807;BME280;14380;49.910;6.792;2023-07-31T06:40:34;98439.44;;;20.72;95.96
26807;BME280;14380;49.910;6.792;2023-07-31T06:43:01;98439.53;;;20.80;95.05
26807;BME280;14380;49.910;6.792;2023-07-31T06:45:33;98436.06;;;21.23;95.70
26807;BME280;14380;49.910;6.792;2023-07-31T06:48:00;98434.72;;;20.92;94.38
26807;BME280;14380;49.910;6.792;2023-07-31T06:50:28;98427.03;;;20.71;94.20
26807;BME280;14380;49.910;6.792;2023-07-31T06:52:56;98429.59;;;20.10;98.09
26807;BME280;14380;49.910;6.792;2023-07-31T06:55:23;98434.94;;;19.74;99.67
26807;BME280;14380;49.910;6.792;2023-07-31T06:57:51;98434.81;;;20.12;99.15
26807;BME280;14380;49.910;6.792;2023-07-31T07:00:18;98433.63;;;20.50;98.26
26807;BME280;14380;49.910;6.792;2023-07-31T07:02:46;98428.19;;;20.87;98.01
26807;BME280;14380;49.910;6.792;2023-07-31T07:05:15;98417.28;;;20.44;97.45
26807;BME280;14380;49.910;6.792;2023-07-31T07:07:49;98429.25;;;20.49;98.11
26807;BME280;14380;49.910;6.792;2023-07-31T07:10:15;98422.63;;;20.17;98.75
26807;BME280;14380;49.910;6.792;2023-07-31T07:12:42;98410.16;;;20.53;98.00
26807;BME280;14380;49.910;6.792;2023-07-31T07:15:09;98426.16;;;19.82;100.00
26807;BME280;14380;49.910;6.792;2023-07-31T07:17:35;98424.56;;;20.07;99.83
26807;BME280;14380;49.910;6.792;2023-07-31T07:20:03;98417.53;;;20.06;100.00
26807;BME280;14380;49.910;6.792;2023-07-31T07:22:30;98408.81;;;20.48;99.18
26807;BME280;14380;49.910;6.792;2023-07-31T07:24:58;98411.50;;;20.57;97.35
26807;BME280;14380;49.910;6.792;2023-07-31T07:27:24;98407.38;;;20.36;98.99
26807;BME280;14380;49.910;6.792;2023-07-31T07:29:51;98409.28;;;20.26;99.61
26807;BME280;14380;49.910;6.792;2023-07-31T07:32:18;98418.72;;;20.12;98.74
26807;BME280;14380;49.910;6.792;2023-07-31T07:34:45;98424.63;;;20.15;99.47
26807;BME280;14380;49.910;6.792;2023-07-31T07:37:11;98409.78;;;20.03;100.00
26807;BME280;14380;49.910;6.792;2023-07-31T07:39:38;98403.47;;;20.30;100.00
26807;BME280;14380;49.910;6.792;2023-07-31T07:42:06;98409.78;;;20.47;98.39
26807;BME280;14380;49.910;6.792;2023-07-31T07:44:33;98405.31;;;20.30;98.34
26807;BME280;14380;49.910;6.792;2023-07-31T07:46:59;98400.69;;;20.40;96.56
26807;BME280;14380;49.910;6.792;2023-07-31T07:49:26;98389.78;;;20.15;97.16
26807;BME280;14380;49.910;6.792;2023-07-31T07:51:52;98390.97;;;20.65;95.56
26807;BME280;14380;49.910;6.792;2023-07-31T07:54:19;98403.25;;;20.50;96.09
26807;BME280;14380;49.910;6.792;2023-07-31T07:56:46;98399.22;;;20.46;96.63
26807;BME280;14380;49.910;6.792;2023-07-31T07:59:14;98404.09;;;20.24;98.46
26807;BME280;14380;49.910;6.792;2023-07-31T08:01:41;98395.47;;;20.39;96.56
26807;BME280;14380;49.910;6.792;2023-07-31T08:04:07;98400.41;;;20.25;97.59
26807;BME280;14380;49.910;6.792;2023-07-31T08:06:34;98394.50;;;20.21;97.33
26807;BME280;14380;49.910;6.792;2023-07-31T08:09:00;98389.97;;;20.93;95.54
26807;BME280;14380;49.910;6.792;2023-07-31T08:11:31;98380.59;;;20.71;94.83
26807;BME280;14380;49.910;6.792;2023-07-31T08:13:58;98381.50;;;20.53;96.53
26807;BME280;14380;49.910;6.792;2023-07-31T08:16:26;98371.19;;;20.67;97.54
26807;BME280;14380;49.910;6.792;2023-07-31T08:18:52;98361.59;;;20.38;97.34
26807;BME280;14380;49.910;6.792;2023-07-31T08:21:19;98370.19;;;20.76;95.92
26807;BME280;14380;49.910;6.792;2023-07-31T08:23:46;98363.97;;;20.41;96.03
26807;BME280;14380;49.910;6.792;2023-07-31T08:26:15;98369.19;;;20.42;96.17
26807;BME280;14380;49.910;6.792;2023-07-31T08:28:41;98372.13;;;20.57;95.38
26807;BME280;14380;49.910;6.792;2023-07-31T08:31:08;98373.38;;;20.71;96.57
26807;BME280;14380;49.910;6.792;2023-07-31T08:33:38;98377.91;;;20.71;94.96
26807;BME280;14380;49.910;6.792;2023-07-31T08:36:05;98367.91;;;20.81;94.38
26807;BME280;14380;49.910;6.792;2023-07-31T08:38:32;98368.50;;;20.93;94.16
26807;BME280;14380;49.910;6.792;2023-07-31T08:40:59;98356.78;;;21.02;93.91
26807;BME280;14380;49.910;6.792;2023-07-31T08:43:29;98350.75;;;21.08;94.82
26807;BME280;14380;49.910;6.792;2023-07-31T08:45:56;98356.91;;;20.92;94.28
26807;BME280;14380;49.910;6.792;2023-07-31T08:48:26;98350.50;;;21.28;95.99
26807;BME280;14380;49.910;6.792;2023-07-31T08:50:55;98349.06;;;21.07;91.80
26807;BME280;14380;49.910;6.792;2023-07-31T08:53:22;98336.53;;;21.16;91.65
26807;BME280;14380;49.910;6.792;2023-07-31T08:55:49;98334.25;;;21.54;93.27
26807;BME280;14380;49.910;6.792;2023-07-31T08:58:17;98328.25;;;21.77;89.79
26807;BME280;14380;49.910;6.792;2023-07-31T09:00:45;98330.94;;;21.77;90.57
26807;BME280;14380;49.910;6.792;2023-07-31T09:03:14;98334.81;;;21.83;91.25
26807;BME280;14380;49.910;6.792;2023-07-31T09:05:42;98330.38;;;22.56;89.06
26807;BME280;14380;49.910;6.792;2023-07-31T09:08:12;98326.19;;;22.37;87.82
26807;BME280;14380;49.910;6.792;2023-07-31T09:10:42;98326.38;;;22.27;86.52
26807;BME280;14380;49.910;6.792;2023-07-31T09:13:11;98334.47;;;21.94;88.74
26807;BME280;14380;49.910;6.792;2023-07-31T09:15:38;98336.94;;;22.29;87.40
26807;BME280;14380;49.910;6.792;2023-07-31T09:18:07;98337.09;;;22.52;87.32
26807;BME280;14380;49.910;6.792;2023-07-31T09:20:34;98342.44;;;22.69;86.02
26807;BME280;14380;49.910;6.792;2023-07-31T09:23:05;98349.09;;;22.81;86.21
26807;BME280;14380;49.910;6.792;2023-07-31T09:25:35;98342.31;;;23.02;86.44
26807;BME280;14380;49.910;6.792;2023-07-31T09:28:03;98358.25;;;23.12;83.20
26807;BME280;14380;49.910;6.792;2023-07-31T09:30:30;98342.66;;;22.34;84.83
26807;BME280;14380;49.910;6.792;2023-07-31T09:33:01;98347.38;;;22.97;85.72
26807;BME280;14380;49.910;6.792;2023-07-31T09:35:29;98342.88;;;22.89;84.81
26807;BME280;14380;49.910;6.792;2023-07-31T09:37:57;98344.78;;;22.72;83.33
26807;BME280;14380;49.910;6.792;2023-07-31T09:40:29;98336.28;;;22.35;85.87
26807;BME280;14380;49.910;6.792;2023-07-31T09:42:58;98333.88;;;22.57;84.98
26807;BME280;14380;49.910;6.792;2023-07-31T09:45:26;98344.34;;;22.52;85.87
26807;BME280;14380;49.910;6.792;2023-07-31T09:47:53;98334.09;;;22.47;85.20
26807;BME280;14380;49.910;6.792;2023-07-31T09:50:21;98338.63;;;22.95;83.95
26807;BME280;14380;49.910;6.792;2023-07-31T09:52:47;98332.94;;;23.21;85.29
26807;BME280;14380;49.910;6.792;2023-07-31T09:55:14;98331.06;;;23.22;85.98
26807;BME280;14380;49.910;6.792;2023-07-31T09:57:42;98333.50;;;22.77;86.20
26807;BME280;14380;49.910;6.792;2023-07-31T10:00:13;98335.88;;;22.63;85.77
26807;BME280;14380;49.910;6.792;2023-07-31T10:02:45;98335.94;;;22.38;84.96
26807;BME280;14380;49.910;6.792;2023-07-31T10:05:13;98333.19;;;22.63;85.14
26807;BME280;14380;49.910;6.792;2023-07-31T10:07:43;98329.66;;;23.02;84.40
26807;BME280;14380;49.910;6.792;2023-07-31T10:10:10;98329.19;;;22.99;83.94
26807;BME280;14380;49.910;6.792;2023-07-31T10:12:37;98333.28;;;22.86;86.15
26807;BME280;14380;49.910;6.792;2023-07-31T10:15:05;98328.34;;;22.58;83.16
26807;BME280;14380;49.910;6.792;2023-07-31T10:17:37;98330.56;;;22.38;82.71
26807;BME280;14380;49.910;6.792;2023-07-31T10:20:09;98334.84;;;22.72;84.16
26807;BME280;14380;49.910;6.792;2023-07-31T10:22:36;98333.94;;;22.49;83.06
26807;BME280;14380;49.910;6.792;2023-07-31T10:25:08;98335.31;;;22.76;82.76
26807;BME280;14380;49.910;6.792;2023-07-31T10:27:41;98344.66;;;22.57;82.16
26807;BME280;14380;49.910;6.792;2023-07-31T10:30:12;98339.13;;;22.50;84.87
26807;BME280;14380;49.910;6.792;2023-07-31T10:32:43;98336.97;;;22.21;86.18
26807;BME280;14380;49.910;6.792;2023-07-31T10:35:11;98337.63;;;22.31;83.61
26807;BME280;14380;49.910;6.792;2023-07-31T10:37:40;98335.28;;;22.28;84.46
26807;BME280;14380;49.910;6.792;2023-07-31T10:40:11;98334.31;;;22.04;86.04
26807;BME280;14380;49.910;6.792;2023-07-31T10:42:46;98334.66;;;22.74;84.73
26807;BME280;14380;49.910;6.792;2023-07-31T10:45:24;98335.94;;;22.22;85.67
26807;BME280;14380;49.910;6.792;2023-07-31T10:47:58;98340.34;;;21.73;87.96
26807;BME280;14380;49.910;6.792;2023-07-31T10:50:27;98341.50;;;22.28;87.28
26807;BME280;14380;49.910;6.792;2023-07-31T10:52:55;98337.09;;;21.61;89.34
26807;BME280;14380;49.910;6.792;2023-07-31T10:55:26;98343.88;;;21.98;88.98
26807;BME280;14380;49.910;6.792;2023-07-31T10:57:53;98333.13;;;21.90;88.28
26807;BME280;14380;49.910;6.792;2023-07-31T11:00:25;98330.75;;;21.87;87.56
26807;BME280;14380;49.910;6.792;2023-07-31T11:03:03;98327.50;;;22.58;87.66
26807;BME280;14380;49.910;6.792;2023-07-31T11:05:51;98321.25;;;23.37;85.22
26807;BME280;14380;49.910;6.792;2023-07-31T11:08:20;98319.19;;;23.48;84.35
26807;BME280;14380;49.910;6.792;2023-07-31T11:10:48;98320.19;;;23.15;83.46
26807;BME280;14380;49.910;6.792;2023-07-31T11:13:15;98303.31;;;23.76;79.85
26807;BME280;14380;49.910;6.792;2023-07-31T11:15:42;98306.47;;;23.80;82.32
26807;BME280;14380;49.910;6.792;2023-07-31T11:18:10;98303.84;;;24.10;77.95
26807;BME280;14380;49.910;6.792;2023-07-31T11:20:38;98301.75;;;24.20;77.52
26807;BME280;14380;49.910;6.792;2023-07-31T11:23:09;98306.59;;;24.25;80.35
26807;BME280;14380;49.910;6.792;2023-07-31T11:25:36;98303.34;;;23.91;78.41
26807;BME280;14380;49.910;6.792;2023-07-31T11:28:04;98314.25;;;23.28;80.91
26807;BME280;14380;49.910;6.792;2023-07-31T11:30:31;98302.75;;;23.81;80.80
26807;BME280;14380;49.910;6.792;2023-07-31T11:33:00;98306.13;;;23.98;79.20
26807;BME280;14380;49.910;6.792;2023-07-31T11:35:30;98312.13;;;23.70;80.01
26807;BME280;14380;49.910;6.792;2023-07-31T11:37:57;98307.78;;;23.37;79.33
26807;BME280;14380;49.910;6.792;2023-07-31T11:40:26;98311.81;;;23.65;79.70
26807;BME280;14380;49.910;6.792;2023-07-31T11:42:58;98321.16;;;22.91;81.25
26807;BME280;14380;49.910;6.792;2023-07-31T11:45:26;98317.78;;;22.32;81.72
26807;BME280;14380;49.910;6.792;2023-07-31T11:47:54;98314.75;;;22.92;82.37
26807;BME280;14380;49.910;6.792;2023-07-31T11:50:24;98305.28;;;23.36;81.93
26807;BME280;14380;49.910;6.792;2023-07-31T11:52:58;98311.09;;;23.24;82.43
26807;BME280;14380;49.910;6.792;2023-07-31T11:55:25;98311.50;;;23.83;83.23
26807;BME280;14380;49.910;6.792;2023-07-31T11:57:55;98316.59;;;23.54;82.94
26807;BME280;14380;49.910;6.792;2023-07-31T12:00:23;98332.69;;;23.08;84.58
26807;BME280;14380;49.910;6.792;2023-07-31T12:02:50;98322.69;;;22.28;86.67
26807;BME280;14380;49.910;6.792;2023-07-31T12:05:17;98323.88;;;21.76;88.15
26807;BME280;14380;49.910;6.792;2023-07-31T12:07:45;98315.97;;;22.24;89.47
26807;BME280;14380;49.910;6.792;2023-07-31T12:10:24;98322.84;;;22.43;87.60
26807;BME280;14380;49.910;6.792;2023-07-31T12:12:59;98323.38;;;22.06;87.78
26807;BME280;14380;49.910;6.792;2023-07-31T12:15:42;98326.72;;;22.24;89.48
26807;BME280;14380;49.910;6.792;2023-07-31T12:18:11;98320.81;;;22.21;88.74
26807;BME280;14380;49.910;6.792;2023-07-31T12:20:42;98335.19;;;21.20;92.30
26807;BME280;14380;49.910;6.792;2023-07-31T12:23:14;98331.59;;;21.79;96.34
26807;BME280;14380;49.910;6.792;2023-07-31T12:25:42;98338.41;;;21.32;100.00
26807;BME280;14380;49.910;6.792;2023-07-31T12:28:09;98344.47;;;20.57;100.00
26807;BME280;14380;49.910;6.792;2023-07-31T12:30:40;98339.00;;;20.40;100.00
26807;BME280;14380;49.910;6.792;2023-07-31T12:33:13;98331.94;;;21.00;100.00
26807;BME280;14380;49.910;6.792;2023-07-31T12:35:43;98331.00;;;21.18;100.00
26807;BME280;14380;49.910;6.792;2023-07-31T12:38:11;98331.72;;;21.53;100.00
26807;BME280;14380;49.910;6.792;2023-07-31T12:40:38;98322.09;;;21.25;100.00
26807;BME280;14380;49.910;6.792;2023-07-31T12:43:07;98326.44;;;20.75;100.00
26807;BME280;14380;49.910;6.792;2023-07-31T12:45:34;98316.13;;;21.48;100.00
26807;BME280;14380;49.910;6.792;2023-07-31T12:48:01;98326.19;;;21.46;100.00
26807;BME280;14380;49.910;6.792;2023-07-31T12:50:28;98325.59;;;20.67;100.00
26807;BME280;14380;49.910;6.792;2023-07-31T12:52:55;98313.81;;;21.02;100.00
26807;BME280;14380;49.910;6.792;2023-07-31T12:55:21;98314.72;;;21.28;100.00
26807;BME280;14380;49.910;6.792;2023-07-31T12:57:51;98320.19;;;21.01;100.00
26807;BME280;14380;49.910;6.792;2023-07-31T13:00:19;98313.66;;;20.34;100.00